Hovedside
METAR-TAF:

METAR-TAF

Lufthavner :

Nyslott lufthavn

Nyslott, Finland

breddegrad: 61-57N, lengdegrad: 028-57E, høyde over havet: 95 m

Gjeldene værobservasjon

Denne rapporten ble laget for 40 minutter siden, klokken 16:50 UTC
Vind 6 kt fra Vest-sørvest
Temperatur 19°C
Luftfuktighet 64%
Trykk 1014 hPa
Sikt 10 km eller mer
ingen skyer under 1500 m og ingen bygeskyer

METAR: EFSA 241650Z AUTO 25006KT CAVOK 19/12 Q1014

Tid: 20:30 (17:30 UTC)

Varsel

Denne rapporten ble laget for 3 timer og 3 minutter siden, klokken 14:27 UTC
Varsel gyldig fra 24. klokken 15 UTC til 24. klokken 18 UTC
Vind 5 kt fra Vest
Sikt 10 km eller mer
ingen skyer under 1500 m og ingen bygeskyer
Midlertidig
fra 24. klokken 15 UTC til 24. klokken 17 UTC
Spredte skyer i en høyde av 4000 ft, Bygeskyer.

TAF: EFSA 241427Z 2415/2418 26005KT CAVOK TEMPO 2415/2417 SCT040CB

Værobservasjoner og værvarsel for over 4000 flyplasser (METAR- og TAF-rapporter).

Tilgjengelige stasjoner er representert av de røde og gule prikkene på kartet.

Hold musepekeren over prikken for å se navnet på stasjonen.

Klikk så for å se værobservasjoner og -varsler.

For å forandre kartet kan du klikke på den grønne knappen med svart kryss for å zoome inn, på den grønne knappen med strek for å zoome ut, eller på de grønne pilene for å se tilstøtende kart.


METAR-TAF: